sensor_id;sensor_type;location;lat;lon;timestamp;temperature;humidity
4399;DHT22;2213;49.720;7.296;2023-04-28T00:01:27;10.90;99.90
4399;DHT22;2213;49.720;7.296;2023-04-28T00:03:56;10.80;99.90
4399;DHT22;2213;49.720;7.296;2023-04-28T00:06:26;10.90;99.90
4399;DHT22;2213;49.720;7.296;2023-04-28T00:08:56;10.90;99.90
4399;DHT22;2213;49.720;7.296;2023-04-28T00:11:26;10.80;99.90
4399;DHT22;2213;49.720;7.296;2023-04-28T00:13:56;10.80;99.90
4399;DHT22;2213;49.720;7.296;2023-04-28T00:16:28;10.80;99.90
4399;DHT22;2213;49.720;7.296;2023-04-28T00:18:58;10.80;99.90
4399;DHT22;2213;49.720;7.296;2023-04-28T00:21:28;10.70;99.90
4399;DHT22;2213;49.720;7.296;2023-04-28T00:23:59;10.70;99.90
4399;DHT22;2213;49.720;7.296;2023-04-28T00:26:28;10.70;99.90
4399;DHT22;2213;49.720;7.296;2023-04-28T00:28:57;10.70;99.90
4399;DHT22;2213;49.720;7.296;2023-04-28T00:31:29;10.70;99.90
4399;DHT22;2213;49.720;7.296;2023-04-28T00:33:59;10.70;99.90
4399;DHT22;2213;49.720;7.296;2023-04-28T00:36:29;10.70;99.90
4399;DHT22;2213;49.720;7.296;2023-04-28T00:39:00;10.60;99.90
4399;DHT22;2213;49.720;7.296;2023-04-28T00:41:30;10.70;99.90
4399;DHT22;2213;49.720;7.296;2023-04-28T00:44:01;10.70;99.90
4399;DHT22;2213;49.720;7.296;2023-04-28T00:46:33;10.60;99.90
4399;DHT22;2213;49.720;7.296;2023-04-28T00:49:03;10.70;99.90
4399;DHT22;2213;49.720;7.296;2023-04-28T00:51:33;10.60;99.90
4399;DHT22;2213;49.720;7.296;2023-04-28T00:54:05;10.60;99.90
4399;DHT22;2213;49.720;7.296;2023-04-28T00:56:35;10.60;99.90
4399;DHT22;2213;49.720;7.296;2023-04-28T00:59:05;10.60;99.90
4399;DHT22;2213;49.720;7.296;2023-04-28T01:01:36;10.60;99.90
4399;DHT22;2213;49.720;7.296;2023-04-28T01:04:07;10.70;99.90
4399;DHT22;2213;49.720;7.296;2023-04-28T01:06:37;10.60;99.90
4399;DHT22;2213;49.720;7.296;2023-04-28T01:09:08;10.60;99.90
4399;DHT22;2213;49.720;7.296;2023-04-28T01:11:38;10.60;99.90
4399;DHT22;2213;49.720;7.296;2023-04-28T01:14:07;10.60;99.90
4399;DHT22;2213;49.720;7.296;2023-04-28T01:16:38;10.60;99.90
4399;DHT22;2213;49.720;7.296;2023-04-28T01:19:12;10.60;99.90
4399;DHT22;2213;49.720;7.296;2023-04-28T01:21:49;10.50;99.90
4399;DHT22;2213;49.720;7.296;2023-04-28T01:24:20;10.50;99.90
4399;DHT22;2213;49.720;7.296;2023-04-28T01:26:50;10.50;99.90
4399;DHT22;2213;49.720;7.296;2023-04-28T01:29:19;10.50;99.90
4399;DHT22;2213;49.720;7.296;2023-04-28T01:31:49;10.50;99.90
4399;DHT22;2213;49.720;7.296;2023-04-28T01:34:20;10.50;99.90
4399;DHT22;2213;49.720;7.296;2023-04-28T01:36:48;10.50;99.90
4399;DHT22;2213;49.720;7.296;2023-04-28T01:39:17;10.50;99.90
4399;DHT22;2213;49.720;7.296;2023-04-28T01:41:48;10.50;99.90
4399;DHT22;2213;49.720;7.296;2023-04-28T01:44:18;10.50;99.90
4399;DHT22;2213;49.720;7.296;2023-04-28T01:46:47;10.50;99.90
4399;DHT22;2213;49.720;7.296;2023-04-28T01:49:18;10.50;99.90
4399;DHT22;2213;49.720;7.296;2023-04-28T01:51:47;10.50;99.90
4399;DHT22;2213;49.720;7.296;2023-04-28T01:54:17;10.60;99.90
4399;DHT22;2213;49.720;7.296;2023-04-28T01:56:48;10.50;99.90
4399;DHT22;2213;49.720;7.296;2023-04-28T01:59:19;10.60;99.90
4399;DHT22;2213;49.720;7.296;2023-04-28T02:01:49;10.60;99.90
4399;DHT22;2213;49.720;7.296;2023-04-28T02:04:19;10.60;99.90
4399;DHT22;2213;49.720;7.296;2023-04-28T02:06:48;10.50;99.90
4399;DHT22;2213;49.720;7.296;2023-04-28T02:09:18;10.50;99.90
4399;DHT22;2213;49.720;7.296;2023-04-28T02:11:50;10.50;99.90
4399;DHT22;2213;49.720;7.296;2023-04-28T02:14:19;10.50;99.90
4399;DHT22;2213;49.720;7.296;2023-04-28T02:16:49;10.50;99.90
4399;DHT22;2213;49.720;7.296;2023-04-28T02:19:18;10.50;99.90
4399;DHT22;2213;49.720;7.296;2023-04-28T02:21:48;10.50;99.90
4399;DHT22;2213;49.720;7.296;2023-04-28T02:24:17;10.50;99.90
4399;DHT22;2213;49.720;7.296;2023-04-28T02:26:47;10.50;99.90
4399;DHT22;2213;49.720;7.296;2023-04-28T02:29:17;10.50;99.90
4399;DHT22;2213;49.720;7.296;2023-04-28T02:31:48;10.50;99.90
4399;DHT22;2213;49.720;7.296;2023-04-28T02:34:19;10.50;99.90
4399;DHT22;2213;49.720;7.296;2023-04-28T02:36:49;10.50;99.90
4399;DHT22;2213;49.720;7.296;2023-04-28T02:39:18;10.50;99.90
4399;DHT22;2213;49.720;7.296;2023-04-28T02:41:51;10.50;99.90
4399;DHT22;2213;49.720;7.296;2023-04-28T02:44:23;10.50;99.90
4399;DHT22;2213;49.720;7.296;2023-04-28T02:46:53;10.50;99.90
4399;DHT22;2213;49.720;7.296;2023-04-28T02:49:23;10.50;99.90
4399;DHT22;2213;49.720;7.296;2023-04-28T02:51:54;10.50;99.90
4399;DHT22;2213;49.720;7.296;2023-04-28T02:54:24;10.50;99.90
4399;DHT22;2213;49.720;7.296;2023-04-28T02:56:55;10.50;99.90
4399;DHT22;2213;49.720;7.296;2023-04-28T02:59:26;10.50;99.90
4399;DHT22;2213;49.720;7.296;2023-04-28T03:01:57;10.50;99.90
4399;DHT22;2213;49.720;7.296;2023-04-28T03:04:27;10.50;99.90
4399;DHT22;2213;49.720;7.296;2023-04-28T03:06:57;10.50;99.90
4399;DHT22;2213;49.720;7.296;2023-04-28T03:09:28;10.50;99.90
4399;DHT22;2213;49.720;7.296;2023-04-28T03:11:58;10.50;99.90
4399;DHT22;2213;49.720;7.296;2023-04-28T03:14:31;10.50;99.90
4399;DHT22;2213;49.720;7.296;2023-04-28T03:17:01;10.50;99.90
4399;DHT22;2213;49.720;7.296;2023-04-28T03:19:31;10.50;99.90
4399;DHT22;2213;49.720;7.296;2023-04-28T03:22:00;10.50;99.90
4399;DHT22;2213;49.720;7.296;2023-04-28T03:24:31;10.50;99.90
4399;DHT22;2213;49.720;7.296;2023-04-28T03:27:01;10.50;99.90
4399;DHT22;2213;49.720;7.296;2023-04-28T03:29:33;10.50;99.90
4399;DHT22;2213;49.720;7.296;2023-04-28T03:32:02;10.50;99.90
4399;DHT22;2213;49.720;7.296;2023-04-28T03:34:34;10.50;99.90
4399;DHT22;2213;49.720;7.296;2023-04-28T03:37:03;10.50;99.90
4399;DHT22;2213;49.720;7.296;2023-04-28T03:39:32;10.50;99.90
4399;DHT22;2213;49.720;7.296;2023-04-28T03:42:01;10.40;99.90
4399;DHT22;2213;49.720;7.296;2023-04-28T03:44:33;10.50;99.90
4399;DHT22;2213;49.720;7.296;2023-04-28T03:47:03;10.50;99.90
4399;DHT22;2213;49.720;7.296;2023-04-28T03:49:34;10.50;99.90
4399;DHT22;2213;49.720;7.296;2023-04-28T03:52:04;10.50;99.90
4399;DHT22;2213;49.720;7.296;2023-04-28T03:54:34;10.50;99.90
4399;DHT22;2213;49.720;7.296;2023-04-28T03:57:04;10.50;99.90
4399;DHT22;2213;49.720;7.296;2023-04-28T03:59:35;10.50;99.90
4399;DHT22;2213;49.720;7.296;2023-04-28T04:02:06;10.50;99.90
4399;DHT22;2213;49.720;7.296;2023-04-28T04:04:35;10.50;99.90
4399;DHT22;2213;49.720;7.296;2023-04-28T04:07:06;10.50;99.90
4399;DHT22;2213;49.720;7.296;2023-04-28T04:09:35;10.50;99.90
4399;DHT22;2213;49.720;7.296;2023-04-28T04:12:06;10.50;99.90
4399;DHT22;2213;49.720;7.296;2023-04-28T04:14:38;10.50;99.90
4399;DHT22;2213;49.720;7.296;2023-04-28T04:17:09;10.50;99.90
4399;DHT22;2213;49.720;7.296;2023-04-28T04:19:37;10.50;99.90
4399;DHT22;2213;49.720;7.296;2023-04-28T04:22:08;10.50;99.90
4399;DHT22;2213;49.720;7.296;2023-04-28T04:24:37;10.50;99.90
4399;DHT22;2213;49.720;7.296;2023-04-28T04:27:08;10.50;99.90
4399;DHT22;2213;49.720;7.296;2023-04-28T04:29:39;10.50;99.90
4399;DHT22;2213;49.720;7.296;2023-04-28T04:32:09;10.50;99.90
4399;DHT22;2213;49.720;7.296;2023-04-28T04:34:40;10.50;99.90
4399;DHT22;2213;49.720;7.296;2023-04-28T04:37:09;10.50;99.90
4399;DHT22;2213;49.720;7.296;2023-04-28T04:39:38;10.50;99.90
4399;DHT22;2213;49.720;7.296;2023-04-28T04:42:09;10.50;99.90
4399;DHT22;2213;49.720;7.296;2023-04-28T04:44:53;10.50;99.90
4399;DHT22;2213;49.720;7.296;2023-04-28T04:47:23;10.50;99.90
4399;DHT22;2213;49.720;7.296;2023-04-28T04:49:54;10.50;99.90
4399;DHT22;2213;49.720;7.296;2023-04-28T04:52:24;10.50;99.90
4399;DHT22;2213;49.720;7.296;2023-04-28T04:54:55;10.50;99.90
4399;DHT22;2213;49.720;7.296;2023-04-28T04:57:24;10.50;99.90
4399;DHT22;2213;49.720;7.296;2023-04-28T04:59:57;10.50;99.90
4399;DHT22;2213;49.720;7.296;2023-04-28T05:02:26;10.50;99.90
4399;DHT22;2213;49.720;7.296;2023-04-28T05:04:57;10.50;99.90
4399;DHT22;2213;49.720;7.296;2023-04-28T05:07:45;10.50;99.90
4399;DHT22;2213;49.720;7.296;2023-04-28T05:10:15;10.50;99.90
4399;DHT22;2213;49.720;7.296;2023-04-28T05:12:45;10.40;99.90
4399;DHT22;2213;49.720;7.296;2023-04-28T05:15:17;10.40;99.90
4399;DHT22;2213;49.720;7.296;2023-04-28T05:17:45;10.50;99.90
4399;DHT22;2213;49.720;7.296;2023-04-28T05:20:14;10.50;99.90
4399;DHT22;2213;49.720;7.296;2023-04-28T05:22:45;10.50;99.90
4399;DHT22;2213;49.720;7.296;2023-04-28T05:25:15;10.50;99.90
4399;DHT22;2213;49.720;7.296;2023-04-28T05:27:44;10.50;99.90
4399;DHT22;2213;49.720;7.296;2023-04-28T05:30:14;10.50;99.90
4399;DHT22;2213;49.720;7.296;2023-04-28T05:32:45;10.50;99.90
4399;DHT22;2213;49.720;7.296;2023-04-28T05:35:16;10.50;99.90
4399;DHT22;2213;49.720;7.296;2023-04-28T05:37:47;10.50;99.90
4399;DHT22;2213;49.720;7.296;2023-04-28T05:40:17;10.60;99.90
4399;DHT22;2213;49.720;7.296;2023-04-28T05:42:47;10.60;99.90
4399;DHT22;2213;49.720;7.296;2023-04-28T05:45:19;10.60;99.90
4399;DHT22;2213;49.720;7.296;2023-04-28T05:47:49;10.60;99.90
4399;DHT22;2213;49.720;7.296;2023-04-28T05:50:21;10.60;99.90
4399;DHT22;2213;49.720;7.296;2023-04-28T05:52:52;10.60;99.90
4399;DHT22;2213;49.720;7.296;2023-04-28T05:55:22;10.60;99.90
4399;DHT22;2213;49.720;7.296;2023-04-28T05:57:52;10.70;99.90
4399;DHT22;2213;49.720;7.296;2023-04-28T06:00:25;10.60;99.90
4399;DHT22;2213;49.720;7.296;2023-04-28T06:02:55;10.70;99.90
4399;DHT22;2213;49.720;7.296;2023-04-28T06:05:24;10.60;99.90
4399;DHT22;2213;49.720;7.296;2023-04-28T06:07:53;10.60;99.90
4399;DHT22;2213;49.720;7.296;2023-04-28T06:10:25;10.60;99.90
4399;DHT22;2213;49.720;7.296;2023-04-28T06:12:55;10.70;99.90
4399;DHT22;2213;49.720;7.296;2023-04-28T06:15:27;10.60;99.90
4399;DHT22;2213;49.720;7.296;2023-04-28T06:17:57;10.70;99.90
4399;DHT22;2213;49.720;7.296;2023-04-28T06:20:27;10.70;99.90
4399;DHT22;2213;49.720;7.296;2023-04-28T06:22:57;10.70;99.90
4399;DHT22;2213;49.720;7.296;2023-04-28T06:25:27;10.70;99.90
4399;DHT22;2213;49.720;7.296;2023-04-28T06:27:56;10.70;99.90
4399;DHT22;2213;49.720;7.296;2023-04-28T06:30:26;10.70;99.90
4399;DHT22;2213;49.720;7.296;2023-04-28T06:32:56;10.70;99.90
4399;DHT22;2213;49.720;7.296;2023-04-28T06:35:27;10.80;99.90
4399;DHT22;2213;49.720;7.296;2023-04-28T06:37:57;10.80;99.90
4399;DHT22;2213;49.720;7.296;2023-04-28T06:40:26;10.90;99.90
4399;DHT22;2213;49.720;7.296;2023-04-28T06:42:55;10.90;99.90
4399;DHT22;2213;49.720;7.296;2023-04-28T06:45:27;10.90;99.90
4399;DHT22;2213;49.720;7.296;2023-04-28T06:47:56;11.00;99.90
4399;DHT22;2213;49.720;7.296;2023-04-28T06:50:25;10.90;99.90
4399;DHT22;2213;49.720;7.296;2023-04-28T06:52:54;10.90;99.90
4399;DHT22;2213;49.720;7.296;2023-04-28T06:55:25;11.00;99.90
4399;DHT22;2213;49.720;7.296;2023-04-28T06:57:55;11.00;99.90
4399;DHT22;2213;49.720;7.296;2023-04-28T07:00:27;11.10;99.90
4399;DHT22;2213;49.720;7.296;2023-04-28T07:02:57;11.10;99.90
4399;DHT22;2213;49.720;7.296;2023-04-28T07:05:29;11.10;99.90
4399;DHT22;2213;49.720;7.296;2023-04-28T07:07:59;11.20;99.90
4399;DHT22;2213;49.720;7.296;2023-04-28T07:10:28;11.20;99.90
4399;DHT22;2213;49.720;7.296;2023-04-28T07:12:58;11.20;99.90
4399;DHT22;2213;49.720;7.296;2023-04-28T07:15:30;11.30;99.90
4399;DHT22;2213;49.720;7.296;2023-04-28T07:17:59;11.30;99.90
4399;DHT22;2213;49.720;7.296;2023-04-28T07:20:29;11.30;99.90
4399;DHT22;2213;49.720;7.296;2023-04-28T07:22:59;11.30;99.90
4399;DHT22;2213;49.720;7.296;2023-04-28T07:25:28;11.40;99.90
4399;DHT22;2213;49.720;7.296;2023-04-28T07:28:02;11.40;99.90
4399;DHT22;2213;49.720;7.296;2023-04-28T07:30:35;11.50;99.90
4399;DHT22;2213;49.720;7.296;2023-04-28T07:33:04;11.70;99.90
4399;DHT22;2213;49.720;7.296;2023-04-28T07:35:34;11.70;99.90
4399;DHT22;2213;49.720;7.296;2023-04-28T07:38:04;11.70;99.90
4399;DHT22;2213;49.720;7.296;2023-04-28T07:40:34;11.80;99.90
4399;DHT22;2213;49.720;7.296;2023-04-28T07:43:04;11.90;99.90
4399;DHT22;2213;49.720;7.296;2023-04-28T07:48:16;12.00;99.90
4399;DHT22;2213;49.720;7.296;2023-04-28T07:50:45;12.10;99.90
4399;DHT22;2213;49.720;7.296;2023-04-28T07:53:17;12.20;99.90
4399;DHT22;2213;49.720;7.296;2023-04-28T07:55:47;12.20;99.90
4399;DHT22;2213;49.720;7.296;2023-04-28T07:58:16;12.30;99.90
4399;DHT22;2213;49.720;7.296;2023-04-28T08:00:47;12.30;99.90
4399;DHT22;2213;49.720;7.296;2023-04-28T08:03:17;12.40;99.90
4399;DHT22;2213;49.720;7.296;2023-04-28T08:05:46;12.50;99.90
4399;DHT22;2213;49.720;7.296;2023-04-28T08:08:15;12.60;99.90
4399;DHT22;2213;49.720;7.296;2023-04-28T08:10:45;12.60;99.90
4399;DHT22;2213;49.720;7.296;2023-04-28T08:13:17;12.60;99.90
4399;DHT22;2213;49.720;7.296;2023-04-28T08:15:49;12.60;99.90
4399;DHT22;2213;49.720;7.296;2023-04-28T08:18:19;12.60;99.90
4399;DHT22;2213;49.720;7.296;2023-04-28T08:20:48;12.70;99.90
4399;DHT22;2213;49.720;7.296;2023-04-28T08:23:17;12.70;99.90
4399;DHT22;2213;49.720;7.296;2023-04-28T08:25:49;12.80;99.90
4399;DHT22;2213;49.720;7.296;2023-04-28T08:28:18;12.90;99.90
4399;DHT22;2213;49.720;7.296;2023-04-28T08:30:50;12.90;99.90
4399;DHT22;2213;49.720;7.296;2023-04-28T08:33:22;13.00;99.90
4399;DHT22;2213;49.720;7.296;2023-04-28T08:35:54;13.10;99.90
4399;DHT22;2213;49.720;7.296;2023-04-28T08:38:24;13.20;99.90
4399;DHT22;2213;49.720;7.296;2023-04-28T08:40:54;13.20;99.90
4399;DHT22;2213;49.720;7.296;2023-04-28T08:43:24;13.30;99.90
4399;DHT22;2213;49.720;7.296;2023-04-28T08:45:57;13.40;99.90
4399;DHT22;2213;49.720;7.296;2023-04-28T08:48:30;13.40;99.90
4399;DHT22;2213;49.720;7.296;2023-04-28T08:51:06;13.40;99.90
4399;DHT22;2213;49.720;7.296;2023-04-28T08:53:37;13.40;99.90
4399;DHT22;2213;49.720;7.296;2023-04-28T08:56:32;13.50;99.90
4399;DHT22;2213;49.720;7.296;2023-04-28T08:59:03;13.50;99.90
4399;DHT22;2213;49.720;7.296;2023-04-28T09:01:34;13.40;99.90
4399;DHT22;2213;49.720;7.296;2023-04-28T09:04:04;13.50;99.90
4399;DHT22;2213;49.720;7.296;2023-04-28T09:06:34;13.60;99.90
4399;DHT22;2213;49.720;7.296;2023-04-28T09:09:21;13.70;99.90
4399;DHT22;2213;49.720;7.296;2023-04-28T09:11:53;13.70;99.90
4399;DHT22;2213;49.720;7.296;2023-04-28T09:14:25;13.60;99.90
4399;DHT22;2213;49.720;7.296;2023-04-28T09:16:56;13.70;99.90
4399;DHT22;2213;49.720;7.296;2023-04-28T09:19:32;13.80;99.90
4399;DHT22;2213;49.720;7.296;2023-04-28T09:22:03;13.80;99.90
4399;DHT22;2213;49.720;7.296;2023-04-28T09:24:52;13.90;99.90
4399;DHT22;2213;49.720;7.296;2023-04-28T09:27:26;14.00;99.90
4399;DHT22;2213;49.720;7.296;2023-04-28T09:29:56;14.10;99.90
4399;DHT22;2213;49.720;7.296;2023-04-28T09:32:28;14.10;99.90
4399;DHT22;2213;49.720;7.296;2023-04-28T09:34:58;14.20;99.90
4399;DHT22;2213;49.720;7.296;2023-04-28T09:37:28;14.30;99.90
4399;DHT22;2213;49.720;7.296;2023-04-28T09:40:04;14.50;99.90
4399;DHT22;2213;49.720;7.296;2023-04-28T09:42:36;14.50;99.90
4399;DHT22;2213;49.720;7.296;2023-04-28T09:45:07;14.50;99.90
4399;DHT22;2213;49.720;7.296;2023-04-28T09:47:40;14.50;99.90
4399;DHT22;2213;49.720;7.296;2023-04-28T09:50:12;14.50;99.90
4399;DHT22;2213;49.720;7.296;2023-04-28T09:52:54;14.60;99.90
4399;DHT22;2213;49.720;7.296;2023-04-28T09:55:28;14.50;99.90
4399;DHT22;2213;49.720;7.296;2023-04-28T09:58:00;14.50;99.90
4399;DHT22;2213;49.720;7.296;2023-04-28T10:00:35;14.50;99.90
4399;DHT22;2213;49.720;7.296;2023-04-28T10:03:10;14.40;99.90
4399;DHT22;2213;49.720;7.296;2023-04-28T10:05:41;14.40;99.90
4399;DHT22;2213;49.720;7.296;2023-04-28T10:08:11;14.40;99.90
4399;DHT22;2213;49.720;7.296;2023-04-28T10:10:41;14.50;99.90
4399;DHT22;2213;49.720;7.296;2023-04-28T10:13:12;14.50;99.90
4399;DHT22;2213;49.720;7.296;2023-04-28T10:15:43;14.40;99.90
4399;DHT22;2213;49.720;7.296;2023-04-28T10:18:16;14.40;99.90
4399;DHT22;2213;49.720;7.296;2023-04-28T10:20:49;14.40;99.90
4399;DHT22;2213;49.720;7.296;2023-04-28T10:23:45;14.40;99.90
4399;DHT22;2213;49.720;7.296;2023-04-28T10:29:30;14.30;99.90
4399;DHT22;2213;49.720;7.296;2023-04-28T10:32:20;14.40;99.90
4399;DHT22;2213;49.720;7.296;2023-04-28T10:38:13;14.50;99.90
4399;DHT22;2213;49.720;7.296;2023-04-28T10:40:43;14.50;99.90
4399;DHT22;2213;49.720;7.296;2023-04-28T10:43:32;14.50;99.90
4399;DHT22;2213;49.720;7.296;2023-04-28T10:46:07;14.40;99.90
4399;DHT22;2213;49.720;7.296;2023-04-28T10:49:05;14.50;99.90
4399;DHT22;2213;49.720;7.296;2023-04-28T10:51:37;14.50;99.90
4399;DHT22;2213;49.720;7.296;2023-04-28T10:54:16;14.50;99.90
4399;DHT22;2213;49.720;7.296;2023-04-28T10:57:18;14.60;99.90
4399;DHT22;2213;49.720;7.296;2023-04-28T10:59:48;14.60;99.90
4399;DHT22;2213;49.720;7.296;2023-04-28T11:02:41;14.60;99.90
4399;DHT22;2213;49.720;7.296;2023-04-28T11:05:14;14.60;99.90
4399;DHT22;2213;49.720;7.296;2023-04-28T11:11:20;14.60;99.90
4399;DHT22;2213;49.720;7.296;2023-04-28T11:13:53;14.70;99.90
4399;DHT22;2213;49.720;7.296;2023-04-28T11:16:49;14.70;99.90
4399;DHT22;2213;49.720;7.296;2023-04-28T11:19:21;14.80;99.90
4399;DHT22;2213;49.720;7.296;2023-04-28T11:21:53;14.60;99.90
4399;DHT22;2213;49.720;7.296;2023-04-28T11:24:25;14.60;99.90
4399;DHT22;2213;49.720;7.296;2023-04-28T11:26:56;14.70;99.90
4399;DHT22;2213;49.720;7.296;2023-04-28T11:29:32;14.70;99.90
4399;DHT22;2213;49.720;7.296;2023-04-28T11:32:05;14.80;99.90
4399;DHT22;2213;49.720;7.296;2023-04-28T11:34:36;14.80;99.90
4399;DHT22;2213;49.720;7.296;2023-04-28T11:37:05;14.80;99.90
4399;DHT22;2213;49.720;7.296;2023-04-28T11:39:36;14.80;99.90
4399;DHT22;2213;49.720;7.296;2023-04-28T11:42:09;14.90;99.90
4399;DHT22;2213;49.720;7.296;2023-04-28T11:44:38;14.80;99.90
4399;DHT22;2213;49.720;7.296;2023-04-28T11:47:09;14.80;99.90
4399;DHT22;2213;49.720;7.296;2023-04-28T11:49:43;14.80;99.90
4399;DHT22;2213;49.720;7.296;2023-04-28T11:52:13;14.90;99.90
4399;DHT22;2213;49.720;7.296;2023-04-28T11:54:43;15.00;99.90
4399;DHT22;2213;49.720;7.296;2023-04-28T11:57:18;15.00;99.90
4399;DHT22;2213;49.720;7.296;2023-04-28T11:59:49;15.10;99.90
4399;DHT22;2213;49.720;7.296;2023-04-28T12:02:26;15.10;99.90
4399;DHT22;2213;49.720;7.296;2023-04-28T12:05:04;15.20;99.90
4399;DHT22;2213;49.720;7.296;2023-04-28T12:07:40;15.20;99.90
4399;DHT22;2213;49.720;7.296;2023-04-28T12:10:11;15.20;99.90
4399;DHT22;2213;49.720;7.296;2023-04-28T12:12:44;15.30;99.90
4399;DHT22;2213;49.720;7.296;2023-04-28T12:15:19;15.40;99.90
4399;DHT22;2213;49.720;7.296;2023-04-28T12:17:53;15.40;99.90
4399;DHT22;2213;49.720;7.296;2023-04-28T12:20:37;15.50;99.90
4399;DHT22;2213;49.720;7.296;2023-04-28T12:23:07;15.50;99.90
4399;DHT22;2213;49.720;7.296;2023-04-28T12:25:43;15.50;99.90
4399;DHT22;2213;49.720;7.296;2023-04-28T12:28:12;15.50;99.90
4399;DHT22;2213;49.720;7.296;2023-04-28T12:30:42;15.50;99.90
4399;DHT22;2213;49.720;7.296;2023-04-28T12:33:23;15.60;99.90
4399;DHT22;2213;49.720;7.296;2023-04-28T12:35:55;15.50;99.90
4399;DHT22;2213;49.720;7.296;2023-04-28T12:38:26;15.50;99.90
4399;DHT22;2213;49.720;7.296;2023-04-28T12:40:55;15.50;99.90
4399;DHT22;2213;49.720;7.296;2023-04-28T12:43:25;15.50;99.90
4399;DHT22;2213;49.720;7.296;2023-04-28T12:45:56;15.40;99.90
4399;DHT22;2213;49.720;7.296;2023-04-28T12:48:28;15.40;99.90
4399;DHT22;2213;49.720;7.296;2023-04-28T12:50:59;15.40;99.90
4399;DHT22;2213;49.720;7.296;2023-04-28T12:53:28;15.50;99.90
4399;DHT22;2213;49.720;7.296;2023-04-28T12:55:56;15.40;99.90
4399;DHT22;2213;49.720;7.296;2023-04-28T12:58:25;15.40;99.90
4399;DHT22;2213;49.720;7.296;2023-04-28T13:00:55;15.40;99.90
4399;DHT22;2213;49.720;7.296;2023-04-28T13:03:25;15.40;99.90
4399;DHT22;2213;49.720;7.296;2023-04-28T13:05:56;15.50;99.90
4399;DHT22;2213;49.720;7.296;2023-04-28T13:08:26;15.40;99.90
4399;DHT22;2213;49.720;7.296;2023-04-28T13:10:57;15.40;99.90
4399;DHT22;2213;49.720;7.296;2023-04-28T13:13:30;15.50;99.90
4399;DHT22;2213;49.720;7.296;2023-04-28T13:15:59;15.40;99.90
4399;DHT22;2213;49.720;7.296;2023-04-28T13:18:30;15.40;99.90
4399;DHT22;2213;49.720;7.296;2023-04-28T13:20:59;15.50;99.90
4399;DHT22;2213;49.720;7.296;2023-04-28T13:23:29;15.60;99.90
4399;DHT22;2213;49.720;7.296;2023-04-28T13:25:59;15.70;99.90
4399;DHT22;2213;49.720;7.296;2023-04-28T13:28:29;16.00;99.90
4399;DHT22;2213;49.720;7.296;2023-04-28T13:30:58;15.90;99.90
4399;DHT22;2213;49.720;7.296;2023-04-28T13:33:30;15.90;99.90
4399;DHT22;2213;49.720;7.296;2023-04-28T13:35:59;16.00;99.90
4399;DHT22;2213;49.720;7.296;2023-04-28T13:38:29;16.10;99.90
4399;DHT22;2213;49.720;7.296;2023-04-28T13:40:58;16.50;99.90
4399;DHT22;2213;49.720;7.296;2023-04-28T13:43:28;16.50;99.90
4399;DHT22;2213;49.720;7.296;2023-04-28T13:45:58;16.60;99.90
4399;DHT22;2213;49.720;7.296;2023-04-28T13:48:29;16.80;99.90
4399;DHT22;2213;49.720;7.296;2023-04-28T13:50:59;16.90;99.90
4399;DHT22;2213;49.720;7.296;2023-04-28T13:53:28;16.90;99.90
4399;DHT22;2213;49.720;7.296;2023-04-28T13:55:58;17.00;99.90
4399;DHT22;2213;49.720;7.296;2023-04-28T13:58:28;17.10;99.90
4399;DHT22;2213;49.720;7.296;2023-04-28T14:01:10;17.20;99.90
4399;DHT22;2213;49.720;7.296;2023-04-28T14:03:54;17.20;99.90
4399;DHT22;2213;49.720;7.296;2023-04-28T14:06:24;17.20;99.90
4399;DHT22;2213;49.720;7.296;2023-04-28T14:08:55;17.30;99.90
4399;DHT22;2213;49.720;7.296;2023-04-28T14:11:25;17.50;99.90
4399;DHT22;2213;49.720;7.296;2023-04-28T14:13:54;17.50;99.90
4399;DHT22;2213;49.720;7.296;2023-04-28T14:16:24;17.70;99.90
4399;DHT22;2213;49.720;7.296;2023-04-28T14:18:57;17.60;99.90
4399;DHT22;2213;49.720;7.296;2023-04-28T14:21:28;17.60;99.90
4399;DHT22;2213;49.720;7.296;2023-04-28T14:24:00;17.80;99.90
4399;DHT22;2213;49.720;7.296;2023-04-28T14:26:32;18.00;99.90
4399;DHT22;2213;49.720;7.296;2023-04-28T14:29:02;18.10;99.90
4399;DHT22;2213;49.720;7.296;2023-04-28T14:31:32;18.30;99.90
4399;DHT22;2213;49.720;7.296;2023-04-28T14:34:03;18.30;99.90
4399;DHT22;2213;49.720;7.296;2023-04-28T14:36:33;18.40;99.90
4399;DHT22;2213;49.720;7.296;2023-04-28T14:39:05;18.50;99.90
4399;DHT22;2213;49.720;7.296;2023-04-28T14:41:35;18.50;99.90
4399;DHT22;2213;49.720;7.296;2023-04-28T14:44:05;18.60;99.90
4399;DHT22;2213;49.720;7.296;2023-04-28T14:46:35;18.60;99.90
4399;DHT22;2213;49.720;7.296;2023-04-28T14:49:06;18.60;99.90
4399;DHT22;2213;49.720;7.296;2023-04-28T14:51:35;18.70;99.90
4399;DHT22;2213;49.720;7.296;2023-04-28T14:54:04;18.70;99.90
4399;DHT22;2213;49.720;7.296;2023-04-28T14:56:35;18.90;99.90
4399;DHT22;2213;49.720;7.296;2023-04-28T14:59:05;18.90;99.90
4399;DHT22;2213;49.720;7.296;2023-04-28T15:01:35;18.90;99.90
4399;DHT22;2213;49.720;7.296;2023-04-28T15:04:05;18.90;99.90
4399;DHT22;2213;49.720;7.296;2023-04-28T15:06:35;19.00;99.90
4399;DHT22;2213;49.720;7.296;2023-04-28T15:09:05;19.10;99.90
4399;DHT22;2213;49.720;7.296;2023-04-28T15:11:34;19.20;99.90
4399;DHT22;2213;49.720;7.296;2023-04-28T15:14:04;19.40;99.90
4399;DHT22;2213;49.720;7.296;2023-04-28T15:16:33;19.40;99.90
4399;DHT22;2213;49.720;7.296;2023-04-28T15:19:05;19.40;99.90
4399;DHT22;2213;49.720;7.296;2023-04-28T15:21:35;19.20;99.90
4399;DHT22;2213;49.720;7.296;2023-04-28T15:24:04;19.10;99.90
4399;DHT22;2213;49.720;7.296;2023-04-28T15:26:34;19.30;99.90
4399;DHT22;2213;49.720;7.296;2023-04-28T15:29:04;19.40;99.90
4399;DHT22;2213;49.720;7.296;2023-04-28T15:31:33;19.40;99.90
4399;DHT22;2213;49.720;7.296;2023-04-28T15:34:03;19.30;99.90
4399;DHT22;2213;49.720;7.296;2023-04-28T15:36:36;19.20;99.90
4399;DHT22;2213;49.720;7.296;2023-04-28T15:39:06;19.20;99.90
4399;DHT22;2213;49.720;7.296;2023-04-28T15:41:36;19.20;99.90
4399;DHT22;2213;49.720;7.296;2023-04-28T15:44:05;19.20;99.90
4399;DHT22;2213;49.720;7.296;2023-04-28T15:46:36;19.20;99.90
4399;DHT22;2213;49.720;7.296;2023-04-28T15:49:07;19.10;99.90
4399;DHT22;2213;49.720;7.296;2023-04-28T15:51:38;19.20;99.90
4399;DHT22;2213;49.720;7.296;2023-04-28T15:54:09;19.10;99.90
4399;DHT22;2213;49.720;7.296;2023-04-28T15:56:38;19.20;99.90
4399;DHT22;2213;49.720;7.296;2023-04-28T15:59:07;19.20;99.90
4399;DHT22;2213;49.720;7.296;2023-04-28T16:01:41;19.00;99.90
4399;DHT22;2213;49.720;7.296;2023-04-28T16:04:10;19.10;99.90
4399;DHT22;2213;49.720;7.296;2023-04-28T16:06:41;19.10;99.90
4399;DHT22;2213;49.720;7.296;2023-04-28T16:09:12;19.00;99.90
4399;DHT22;2213;49.720;7.296;2023-04-28T16:11:41;19.10;99.90
4399;DHT22;2213;49.720;7.296;2023-04-28T16:14:11;19.10;99.90
4399;DHT22;2213;49.720;7.296;2023-04-28T16:16:42;19.10;99.90
4399;DHT22;2213;49.720;7.296;2023-04-28T16:19:11;18.90;99.90
4399;DHT22;2213;49.720;7.296;2023-04-28T16:21:43;19.00;99.90
4399;DHT22;2213;49.720;7.296;2023-04-28T16:24:12;18.80;99.90
4399;DHT22;2213;49.720;7.296;2023-04-28T16:26:42;18.80;99.90
4399;DHT22;2213;49.720;7.296;2023-04-28T16:29:13;18.80;99.90
4399;DHT22;2213;49.720;7.296;2023-04-28T16:31:44;18.80;99.90
4399;DHT22;2213;49.720;7.296;2023-04-28T16:34:13;18.90;99.90
4399;DHT22;2213;49.720;7.296;2023-04-28T16:36:43;18.90;99.90
4399;DHT22;2213;49.720;7.296;2023-04-28T16:39:13;18.80;99.90
4399;DHT22;2213;49.720;7.296;2023-04-28T16:41:43;18.70;99.90